createdAt,value
2023-01-03T00:02:03.360Z,23.90
2023-01-03T00:08:14.324Z,23.90
2023-01-03T00:14:25.106Z,23.80
2023-01-03T00:20:34.836Z,23.80
2023-01-03T00:26:46.169Z,23.80
2023-01-03T00:32:55.659Z,23.80
2023-01-03T00:39:06.666Z,23.70
2023-01-03T00:45:20.072Z,23.70
2023-01-03T00:51:30.119Z,23.70
2023-01-03T00:57:39.326Z,23.70
2023-01-03T01:03:48.080Z,23.70
2023-01-03T01:09:57.868Z,23.70
2023-01-03T01:16:11.323Z,24.20
2023-01-03T01:22:20.387Z,24.40
2023-01-03T01:28:30.344Z,24.40
2023-01-03T01:34:40.295Z,24.20
2023-01-03T01:47:09.814Z,23.90
2023-01-03T01:53:25.538Z,23.80
2023-01-03T01:59:36.333Z,23.70
2023-01-03T02:05:51.071Z,23.70
2023-01-03T02:12:19.816Z,23.60
2023-01-03T02:18:38.960Z,23.60
2023-01-03T02:25:25.657Z,23.50
2023-01-03T02:31:38.953Z,23.50
2023-01-03T02:37:50.166Z,23.30
2023-01-03T02:43:58.743Z,23.30
2023-01-03T02:50:10.588Z,23.30
2023-01-03T02:56:24.868Z,23.20
2023-01-03T03:02:34.479Z,23.20
2023-01-03T03:08:43.836Z,23.20
2023-01-03T03:14:56.939Z,23.20
2023-01-03T03:21:25.243Z,23.20
2023-01-03T03:27:54.243Z,23.20
2023-01-03T03:34:06.122Z,23.20
2023-01-03T03:40:32.221Z,23.10
2023-01-03T03:46:54.483Z,23.10
2023-01-03T03:53:03.965Z,23.10
2023-01-03T03:59:14.902Z,23.10
2023-01-03T04:11:40.995Z,23.00
2023-01-03T04:17:54.200Z,23.00
2023-01-03T04:24:06.671Z,22.90
2023-01-03T04:30:20.821Z,22.80
2023-01-03T04:36:30.233Z,22.80
2023-01-03T04:42:56.808Z,22.70
2023-01-03T04:49:06.383Z,22.70
2023-01-03T04:55:17.646Z,22.70
2023-01-03T05:01:28.357Z,22.60
2023-01-03T05:07:40.519Z,22.60
2023-01-03T05:13:53.441Z,22.60
2023-01-03T05:20:23.765Z,22.50
2023-01-03T05:26:33.482Z,22.50
2023-01-03T05:32:40.902Z,22.40
2023-01-03T05:38:53.979Z,22.40
2023-01-03T05:45:05.050Z,22.30
2023-01-03T05:51:17.079Z,22.30
2023-01-03T05:57:35.206Z,22.30
2023-01-03T06:03:43.215Z,22.20
2023-01-03T06:09:50.844Z,22.20
2023-01-03T06:16:24.655Z,22.10
2023-01-03T06:22:36.041Z,22.10
2023-01-03T06:28:44.316Z,22.00
2023-01-03T06:34:55.377Z,22.00
2023-01-03T06:47:36.295Z,21.90
2023-01-03T06:53:44.905Z,21.80
2023-01-03T06:59:54.870Z,21.80
2023-01-03T07:06:05.996Z,21.80
2023-01-03T07:12:32.886Z,21.70
2023-01-03T07:18:50.698Z,21.70
2023-01-03T07:24:57.675Z,21.70
2023-01-03T07:31:11.410Z,21.60
2023-01-03T07:37:20.842Z,21.60
2023-01-03T07:43:42.011Z,21.50
2023-01-03T07:49:52.401Z,21.60
2023-01-03T07:56:13.210Z,21.50
2023-01-03T08:02:23.947Z,21.50
2023-01-03T08:08:35.514Z,21.40
2023-01-03T08:14:42.916Z,21.40
2023-01-03T08:20:56.054Z,21.30
2023-01-03T08:27:05.833Z,21.30
2023-01-03T08:33:16.650Z,21.30
2023-01-03T08:39:29.824Z,21.50
2023-01-03T08:45:38.617Z,21.80
2023-01-03T08:51:49.275Z,21.80
2023-01-03T08:58:03.898Z,21.60
2023-01-03T09:04:16.519Z,21.50
2023-01-03T09:10:28.421Z,21.50
2023-01-03T09:16:37.892Z,21.50
2023-01-03T09:22:47.680Z,21.60
2023-01-03T09:28:57.974Z,21.80
2023-01-03T09:35:09.259Z,21.90
2023-01-03T09:41:22.314Z,21.70
2023-01-03T09:47:32.433Z,21.60
2023-01-03T09:53:58.041Z,21.50
2023-01-03T10:00:28.207Z,21.50
2023-01-03T10:06:40.297Z,21.40
2023-01-03T10:12:53.504Z,21.40
2023-01-03T10:19:15.008Z,21.40
2023-01-03T10:25:25.485Z,21.70
2023-01-03T10:31:42.509Z,21.80
2023-01-03T10:37:50.525Z,21.70
2023-01-03T10:44:04.628Z,21.50
2023-01-03T10:50:23.394Z,21.50
2023-01-03T10:56:33.553Z,21.40
2023-01-03T11:02:50.741Z,21.40
2023-01-03T11:09:00.671Z,21.70
2023-01-03T11:15:13.615Z,21.80
2023-01-03T11:21:26.022Z,21.70
2023-01-03T11:27:49.644Z,21.50
2023-01-03T11:34:03.646Z,21.40
2023-01-03T11:40:19.210Z,21.50
2023-01-03T11:46:47.739Z,21.80
2023-01-03T11:53:00.650Z,21.80
2023-01-03T11:59:41.044Z,21.70
2023-01-03T12:05:52.177Z,21.60
2023-01-03T12:12:14.707Z,21.50
2023-01-03T12:24:46.261Z,21.90
2023-01-03T12:30:57.837Z,22.20
2023-01-03T12:37:12.209Z,22.40
2023-01-03T12:43:23.931Z,22.70
2023-01-03T12:49:36.324Z,23.00
2023-01-03T12:55:48.021Z,23.20
2023-01-03T13:02:02.254Z,23.40
2023-01-03T13:08:12.435Z,23.20
2023-01-03T13:14:24.111Z,23.20
2023-01-03T13:20:53.485Z,23.50
2023-01-03T13:34:03.554Z,23.50
2023-01-03T13:41:07.915Z,23.30
2023-01-03T13:46:41.121Z,23.30
2023-01-03T13:53:04.753Z,23.60
2023-01-03T13:59:20.686Z,23.70
2023-01-03T14:05:53.588Z,23.60
2023-01-03T14:12:24.634Z,23.50
2023-01-03T14:18:35.932Z,23.60
2023-01-03T14:24:53.319Z,23.80
2023-01-03T14:31:11.459Z,23.80
2023-01-03T14:37:26.769Z,23.60
2023-01-03T14:43:38.948Z,23.50
2023-01-03T14:49:50.654Z,23.60
2023-01-03T14:56:03.912Z,23.90
2023-01-03T15:02:15.086Z,23.90
2023-01-03T15:08:30.566Z,23.70
2023-01-03T15:14:42.446Z,23.60
2023-01-03T15:20:53.897Z,23.50
2023-01-03T15:27:07.319Z,23.80
2023-01-03T15:33:27.685Z,23.90
2023-01-03T15:39:41.021Z,23.80
2023-01-03T15:45:55.960Z,23.60
2023-01-03T15:52:08.232Z,23.50
2023-01-03T15:58:18.205Z,23.80
2023-01-03T16:04:27.773Z,24.10
2023-01-03T16:10:40.863Z,23.90
2023-01-03T16:16:53.112Z,23.70
2023-01-03T16:23:03.510Z,23.60
2023-01-03T16:29:11.330Z,23.70
2023-01-03T16:35:21.962Z,24.00
2023-01-03T16:41:31.863Z,24.00
2023-01-03T16:47:44.431Z,23.70
2023-01-03T16:53:54.753Z,23.60
2023-01-03T17:00:05.401Z,23.50
2023-01-03T17:06:22.419Z,23.50
2023-01-03T17:12:31.814Z,23.90
2023-01-03T17:18:44.080Z,23.90
2023-01-03T17:24:54.953Z,23.60
2023-01-03T17:31:02.964Z,23.30
2023-01-03T17:37:16.378Z,23.50
2023-01-03T17:43:26.578Z,23.90
2023-01-03T17:49:35.374Z,24.00
2023-01-03T18:02:07.309Z,23.60
2023-01-03T18:08:18.258Z,23.60
2023-01-03T18:14:31.292Z,23.50
2023-01-03T18:20:41.685Z,23.50
2023-01-03T18:26:54.081Z,23.40
2023-01-03T18:33:06.448Z,23.50
2023-01-03T18:39:21.293Z,23.40
2023-01-03T18:45:31.459Z,23.40
2023-01-03T18:51:44.255Z,23.60
2023-01-03T18:57:54.620Z,24.00
2023-01-03T19:04:05.349Z,24.00
2023-01-03T19:10:23.187Z,23.80
2023-01-03T19:16:32.120Z,23.60
2023-01-03T19:22:43.162Z,23.50
2023-01-03T19:28:56.981Z,23.50
2023-01-03T19:35:08.144Z,23.90
2023-01-03T19:41:19.616Z,24.20
2023-01-03T19:47:30.397Z,24.00
2023-01-03T19:53:40.906Z,23.80
2023-01-03T19:59:48.798Z,23.70
2023-01-03T20:05:56.256Z,23.60
2023-01-03T20:12:03.887Z,23.50
2023-01-03T20:18:20.706Z,23.40
2023-01-03T20:24:30.427Z,23.70
2023-01-03T20:30:39.381Z,24.00
2023-01-03T20:36:51.777Z,23.90
2023-01-03T20:43:05.706Z,23.70
2023-01-03T20:49:17.492Z,23.60
2023-01-03T20:55:31.113Z,23.50
2023-01-03T21:01:43.654Z,23.60
2023-01-03T21:08:09.813Z,23.90
2023-01-03T21:14:20.052Z,23.90
2023-01-03T21:20:29.694Z,23.60
2023-01-03T21:26:41.427Z,23.40
2023-01-03T21:32:52.497Z,23.30
2023-01-03T21:39:03.241Z,23.50
2023-01-03T21:45:17.213Z,23.90
2023-01-03T21:51:39.006Z,23.90
2023-01-03T21:57:42.005Z,23.70
2023-01-03T22:04:20.638Z,23.50
2023-01-03T22:10:37.039Z,23.50
2023-01-03T22:16:51.647Z,23.50
2023-01-03T22:23:02.210Z,23.70
2023-01-03T22:29:13.412Z,24.10
2023-01-03T22:35:22.876Z,24.10
2023-01-03T22:41:31.851Z,24.00
2023-01-03T22:47:40.645Z,23.80
2023-01-03T22:53:52.079Z,23.80
2023-01-03T23:00:02.710Z,23.80
2023-01-03T23:06:14.309Z,24.20
2023-01-03T23:12:40.118Z,24.30
2023-01-03T23:18:53.078Z,23.90
2023-01-03T23:25:03.689Z,23.70
2023-01-03T23:31:13.671Z,23.70
2023-01-03T23:37:21.857Z,23.80
2023-01-03T23:43:31.231Z,24.20
2023-01-03T23:49:40.882Z,24.40
2023-01-03T23:55:56.359Z,24.30
